sensor_id;sensor_type;location;lat;lon;timestamp;pressure;altitude;pressure_sealevel;temperature;humidity
49945;BME280;35838;49.134;9.212;2022-12-18T00:00:28;101158.66;;;-6.90;77.89
49945;BME280;35838;49.134;9.212;2022-12-18T00:02:03;101156.53;;;-6.86;77.64
49945;BME280;35838;49.134;9.212;2022-12-18T00:03:37;101153.22;;;-6.95;77.64
49945;BME280;35838;49.134;9.212;2022-12-18T00:05:13;101152.63;;;-6.93;77.86
49945;BME280;35838;49.134;9.212;2022-12-18T00:06:47;101152.13;;;-6.88;77.62
49945;BME280;35838;49.134;9.212;2022-12-18T00:08:19;101151.50;;;-6.86;77.42
49945;BME280;35838;49.134;9.212;2022-12-18T00:09:53;101153.63;;;-6.90;77.63
49945;BME280;35838;49.134;9.212;2022-12-18T00:11:29;101156.50;;;-6.96;77.36
49945;BME280;35838;49.134;9.212;2022-12-18T00:13:00;101164.22;;;-6.95;77.52
49945;BME280;35838;49.134;9.212;2022-12-18T00:14:37;101163.72;;;-6.90;77.48
49945;BME280;35838;49.134;9.212;2022-12-18T00:16:12;101158.66;;;-6.90;77.19
49945;BME280;35838;49.134;9.212;2022-12-18T00:17:47;101157.81;;;-6.91;77.16
49945;BME280;35838;49.134;9.212;2022-12-18T00:19:21;101168.19;;;-7.07;77.16
49945;BME280;35838;49.134;9.212;2022-12-18T00:20:58;101167.69;;;-7.13;77.54
49945;BME280;35838;49.134;9.212;2022-12-18T00:22:33;101164.13;;;-7.15;77.72
49945;BME280;35838;49.134;9.212;2022-12-18T00:24:05;101169.69;;;-7.09;77.71
49945;BME280;35838;49.134;9.212;2022-12-18T00:25:39;101163.88;;;-7.18;77.55
49945;BME280;35838;49.134;9.212;2022-12-18T00:27:13;101165.16;;;-7.13;77.81
49945;BME280;35838;49.134;9.212;2022-12-18T00:28:47;101164.41;;;-7.12;77.93
49945;BME280;35838;49.134;9.212;2022-12-18T00:30:21;101167.78;;;-7.12;77.72
49945;BME280;35838;49.134;9.212;2022-12-18T00:31:55;101168.94;;;-7.08;77.42
49945;BME280;35838;49.134;9.212;2022-12-18T00:33:27;101166.41;;;-7.18;77.39
49945;BME280;35838;49.134;9.212;2022-12-18T00:35:01;101166.13;;;-7.21;77.61
49945;BME280;35838;49.134;9.212;2022-12-18T00:36:35;101154.44;;;-7.11;77.43
49945;BME280;35838;49.134;9.212;2022-12-18T00:38:09;101168.81;;;-7.10;77.33
49945;BME280;35838;49.134;9.212;2022-12-18T00:39:44;101164.63;;;-7.19;77.06
49945;BME280;35838;49.134;9.212;2022-12-18T00:41:19;101155.81;;;-7.14;76.86
49945;BME280;35838;49.134;9.212;2022-12-18T00:43:05;101164.56;;;-7.30;77.15
49945;BME280;35838;49.134;9.212;2022-12-18T00:44:36;101161.81;;;-7.22;77.45
49945;BME280;35838;49.134;9.212;2022-12-18T00:46:13;101164.63;;;-7.19;77.55
49945;BME280;35838;49.134;9.212;2022-12-18T00:47:47;101163.72;;;-7.20;77.52
49945;BME280;35838;49.134;9.212;2022-12-18T00:49:21;101163.88;;;-7.18;77.56
49945;BME280;35838;49.134;9.212;2022-12-18T00:50:55;101163.09;;;-7.17;77.35
49945;BME280;35838;49.134;9.212;2022-12-18T00:52:27;101167.78;;;-7.12;77.28
49945;BME280;35838;49.134;9.212;2022-12-18T00:54:01;101172.72;;;-7.13;77.26
49945;BME280;35838;49.134;9.212;2022-12-18T00:55:35;101172.94;;;-7.20;77.45
49945;BME280;35838;49.134;9.212;2022-12-18T00:57:10;101174.97;;;-7.16;77.83
49945;BME280;35838;49.134;9.212;2022-12-18T00:58:44;101174.50;;;-7.12;77.63
49945;BME280;35838;49.134;9.212;2022-12-18T01:00:16;101175.88;;;-7.16;77.28
49945;BME280;35838;49.134;9.212;2022-12-18T01:01:53;101178.97;;;-7.29;77.24
49945;BME280;35838;49.134;9.212;2022-12-18T01:03:27;101178.22;;;-7.28;77.34
49945;BME280;35838;49.134;9.212;2022-12-18T01:05:01;101178.00;;;-7.20;77.32
49945;BME280;35838;49.134;9.212;2022-12-18T01:06:35;101179.50;;;-7.22;76.94
49945;BME280;35838;49.134;9.212;2022-12-18T01:08:10;101173.28;;;-7.26;76.99
49945;BME280;35838;49.134;9.212;2022-12-18T01:09:44;101172.25;;;-7.28;77.02
49945;BME280;35838;49.134;9.212;2022-12-18T01:11:20;101169.06;;;-7.36;77.20
49945;BME280;35838;49.134;9.212;2022-12-18T01:12:55;101173.97;;;-7.37;77.43
49945;BME280;35838;49.134;9.212;2022-12-18T01:14:29;101178.16;;;-7.38;77.52
49945;BME280;35838;49.134;9.212;2022-12-18T01:16:04;101177.41;;;-7.37;77.62
49945;BME280;35838;49.134;9.212;2022-12-18T01:17:41;101173.09;;;-7.38;77.56
49945;BME280;35838;49.134;9.212;2022-12-18T01:19:15;101174.59;;;-7.40;77.50
49945;BME280;35838;49.134;9.212;2022-12-18T01:20:46;101180.50;;;-7.40;77.64
49945;BME280;35838;49.134;9.212;2022-12-18T01:22:21;101183.19;;;-7.38;77.60
49945;BME280;35838;49.134;9.212;2022-12-18T01:23:55;101184.81;;;-7.38;77.69
49945;BME280;35838;49.134;9.212;2022-12-18T01:25:29;101186.72;;;-7.36;77.40
49945;BME280;35838;49.134;9.212;2022-12-18T01:27:03;101189.72;;;-7.40;77.77
49945;BME280;35838;49.134;9.212;2022-12-18T01:28:38;101185.22;;;-7.34;77.68
49945;BME280;35838;49.134;9.212;2022-12-18T01:30:10;101188.78;;;-7.32;77.83
49945;BME280;35838;49.134;9.212;2022-12-18T01:31:45;101184.75;;;-7.30;77.88
49945;BME280;35838;49.134;9.212;2022-12-18T01:33:21;101193.34;;;-7.28;77.77
49945;BME280;35838;49.134;9.212;2022-12-18T01:34:53;101188.44;;;-7.64;78.39
49945;BME280;35838;49.134;9.212;2022-12-18T01:36:28;101188.63;;;-7.72;79.06
49945;BME280;35838;49.134;9.212;2022-12-18T01:38:03;101191.03;;;-7.54;79.09
49945;BME280;35838;49.134;9.212;2022-12-18T01:39:37;101198.47;;;-7.56;78.86
49945;BME280;35838;49.134;9.212;2022-12-18T01:41:11;101189.44;;;-7.43;78.53
49945;BME280;35838;49.134;9.212;2022-12-18T01:42:43;101193.28;;;-7.38;78.13
49945;BME280;35838;49.134;9.212;2022-12-18T01:46:18;101185.06;;;-7.16;77.62
49945;BME280;35838;49.134;9.212;2022-12-18T01:47:55;101191.22;;;-7.42;77.56
49945;BME280;35838;49.134;9.212;2022-12-18T01:49:32;101196.69;;;-7.57;77.95
49945;BME280;35838;49.134;9.212;2022-12-18T01:51:07;101193.69;;;-7.52;78.38
49945;BME280;35838;49.134;9.212;2022-12-18T01:52:44;101184.41;;;-7.43;78.40
49945;BME280;35838;49.134;9.212;2022-12-18T01:54:16;101180.09;;;-7.44;78.28
49945;BME280;35838;49.134;9.212;2022-12-18T01:55:53;101176.59;;;-7.46;77.98
49945;BME280;35838;49.134;9.212;2022-12-18T01:57:28;101174.25;;;-7.53;78.12
49945;BME280;35838;49.134;9.212;2022-12-18T01:59:02;101176.78;;;-7.53;78.12
49945;BME280;35838;49.134;9.212;2022-12-18T02:00:37;101189.31;;;-7.45;77.75
49945;BME280;35838;49.134;9.212;2022-12-18T02:02:09;101182.09;;;-7.50;77.79
49945;BME280;35838;49.134;9.212;2022-12-18T02:03:43;101194.84;;;-7.49;77.81
49945;BME280;35838;49.134;9.212;2022-12-18T02:05:26;101188.78;;;-7.51;77.86
49945;BME280;35838;49.134;9.212;2022-12-18T02:07:07;101183.41;;;-7.45;77.66
49945;BME280;35838;49.134;9.212;2022-12-18T02:08:50;101187.41;;;-7.47;77.63
49945;BME280;35838;49.134;9.212;2022-12-18T02:10:29;101199.13;;;-7.48;77.79
49945;BME280;35838;49.134;9.212;2022-12-18T02:12:07;101201.59;;;-7.39;77.68
49945;BME280;35838;49.134;9.212;2022-12-18T02:13:53;101189.25;;;-7.36;77.57
49945;BME280;35838;49.134;9.212;2022-12-18T02:15:32;101180.66;;;-7.38;77.29
49945;BME280;35838;49.134;9.212;2022-12-18T02:17:10;101179.22;;;-7.45;77.38
49945;BME280;35838;49.134;9.212;2022-12-18T02:18:50;101185.38;;;-7.51;77.70
49945;BME280;35838;49.134;9.212;2022-12-18T02:20:31;101193.22;;;-7.48;78.06
49945;BME280;35838;49.134;9.212;2022-12-18T02:22:18;101193.63;;;-7.63;78.16
49945;BME280;35838;49.134;9.212;2022-12-18T02:23:57;101194.41;;;-7.53;78.10
49945;BME280;35838;49.134;9.212;2022-12-18T02:25:54;101193.75;;;-7.42;77.82
49945;BME280;35838;49.134;9.212;2022-12-18T02:27:35;101188.50;;;-7.35;77.55
49945;BME280;35838;49.134;9.212;2022-12-18T02:29:13;101182.44;;;-7.37;77.33
49945;BME280;35838;49.134;9.212;2022-12-18T02:30:50;101179.22;;;-7.26;76.73
49945;BME280;35838;49.134;9.212;2022-12-18T02:32:26;101177.13;;;-7.40;76.66
49945;BME280;35838;49.134;9.212;2022-12-18T02:34:03;101183.84;;;-7.30;76.69
49945;BME280;35838;49.134;9.212;2022-12-18T02:35:36;101197.22;;;-7.31;76.69
49945;BME280;35838;49.134;9.212;2022-12-18T02:37:13;101199.31;;;-7.36;76.38
49945;BME280;35838;49.134;9.212;2022-12-18T02:38:50;101209.69;;;-7.33;76.20
49945;BME280;35838;49.134;9.212;2022-12-18T02:40:27;101215.03;;;-7.30;76.01
49945;BME280;35838;49.134;9.212;2022-12-18T02:42:04;101206.53;;;-7.41;75.90
49945;BME280;35838;49.134;9.212;2022-12-18T02:43:38;101207.09;;;-7.43;76.24
49945;BME280;35838;49.134;9.212;2022-12-18T02:45:13;101200.25;;;-7.54;76.48
49945;BME280;35838;49.134;9.212;2022-12-18T02:46:50;101207.25;;;-7.61;76.71
49945;BME280;35838;49.134;9.212;2022-12-18T02:48:28;101212.69;;;-7.56;76.90
49945;BME280;35838;49.134;9.212;2022-12-18T02:50:09;101217.91;;;-7.54;76.98
49945;BME280;35838;49.134;9.212;2022-12-18T02:51:53;101218.91;;;-7.52;76.99
49945;BME280;35838;49.134;9.212;2022-12-18T02:53:31;101219.81;;;-7.52;76.87
49945;BME280;35838;49.134;9.212;2022-12-18T02:55:18;101213.69;;;-7.45;76.59
49945;BME280;35838;49.134;9.212;2022-12-18T02:57:08;101216.66;;;-7.49;76.66
49945;BME280;35838;49.134;9.212;2022-12-18T02:58:49;101212.50;;;-7.49;76.54
49945;BME280;35838;49.134;9.212;2022-12-18T03:00:30;101199.88;;;-7.49;76.40
49945;BME280;35838;49.134;9.212;2022-12-18T03:02:09;101205.22;;;-7.46;76.64
49945;BME280;35838;49.134;9.212;2022-12-18T03:03:52;101202.28;;;-7.50;76.55
49945;BME280;35838;49.134;9.212;2022-12-18T03:05:33;101196.94;;;-7.53;76.43
49945;BME280;35838;49.134;9.212;2022-12-18T03:07:14;101195.75;;;-7.48;76.41
49945;BME280;35838;49.134;9.212;2022-12-18T03:08:51;101204.59;;;-7.43;75.94
49945;BME280;35838;49.134;9.212;2022-12-18T03:10:29;101207.19;;;-7.52;76.11
49945;BME280;35838;49.134;9.212;2022-12-18T03:12:12;101202.88;;;-7.53;76.23
49945;BME280;35838;49.134;9.212;2022-12-18T03:13:56;101198.19;;;-7.59;76.13
49945;BME280;35838;49.134;9.212;2022-12-18T03:15:36;101195.66;;;-7.59;76.37
49945;BME280;35838;49.134;9.212;2022-12-18T03:17:13;101194.03;;;-7.58;76.56
49945;BME280;35838;49.134;9.212;2022-12-18T03:18:49;101190.34;;;-7.62;76.44
49945;BME280;35838;49.134;9.212;2022-12-18T03:20:26;101187.75;;;-7.53;76.35
49945;BME280;35838;49.134;9.212;2022-12-18T03:22:02;101189.66;;;-7.50;76.22
49945;BME280;35838;49.134;9.212;2022-12-18T03:23:40;101190.69;;;-7.48;75.89
49945;BME280;35838;49.134;9.212;2022-12-18T03:25:18;101196.44;;;-7.41;75.60
49945;BME280;35838;49.134;9.212;2022-12-18T03:26:53;101200.84;;;-7.38;75.11
49945;BME280;35838;49.134;9.212;2022-12-18T03:28:34;101201.44;;;-7.60;75.29
49945;BME280;35838;49.134;9.212;2022-12-18T03:30:11;101207.94;;;-7.53;75.39
49945;BME280;35838;49.134;9.212;2022-12-18T03:31:50;101205.47;;;-7.62;75.22
49945;BME280;35838;49.134;9.212;2022-12-18T03:33:28;101210.78;;;-7.59;75.67
49945;BME280;35838;49.134;9.212;2022-12-18T03:35:05;101211.63;;;-7.68;75.93
49945;BME280;35838;49.134;9.212;2022-12-18T03:36:36;101204.78;;;-7.69;76.15
49945;BME280;35838;49.134;9.212;2022-12-18T03:38:11;101201.78;;;-7.65;76.07
49945;BME280;35838;49.134;9.212;2022-12-18T03:39:46;101202.69;;;-7.65;75.96
49945;BME280;35838;49.134;9.212;2022-12-18T03:41:28;101211.00;;;-7.66;75.92
49945;BME280;35838;49.134;9.212;2022-12-18T03:43:10;101203.56;;;-7.64;75.72
49945;BME280;35838;49.134;9.212;2022-12-18T03:44:53;101205.88;;;-7.76;76.17
49945;BME280;35838;49.134;9.212;2022-12-18T03:46:36;101209.09;;;-7.68;76.17
49945;BME280;35838;49.134;9.212;2022-12-18T03:48:17;101214.56;;;-7.64;76.47
49945;BME280;35838;49.134;9.212;2022-12-18T03:50:06;101209.91;;;-7.59;76.12
49945;BME280;35838;49.134;9.212;2022-12-18T03:51:47;101206.09;;;-7.64;76.34
49945;BME280;35838;49.134;9.212;2022-12-18T03:53:28;101205.22;;;-7.65;76.35
49945;BME280;35838;49.134;9.212;2022-12-18T03:55:07;101212.56;;;-7.58;75.88
49945;BME280;35838;49.134;9.212;2022-12-18T03:56:47;101210.50;;;-7.62;75.92
49945;BME280;35838;49.134;9.212;2022-12-18T03:58:24;101205.63;;;-7.60;75.54
49945;BME280;35838;49.134;9.212;2022-12-18T04:00:05;101205.75;;;-7.59;75.45
49945;BME280;35838;49.134;9.212;2022-12-18T04:01:41;101203.31;;;-7.67;75.28
49945;BME280;35838;49.134;9.212;2022-12-18T04:03:14;101201.94;;;-7.64;75.33
49945;BME280;35838;49.134;9.212;2022-12-18T04:04:51;101208.47;;;-7.66;74.94
49945;BME280;35838;49.134;9.212;2022-12-18T04:06:27;101220.78;;;-7.69;75.10
49945;BME280;35838;49.134;9.212;2022-12-18T04:08:02;101213.66;;;-7.64;75.11
49945;BME280;35838;49.134;9.212;2022-12-18T04:09:35;101211.28;;;-7.63;75.02
49945;BME280;35838;49.134;9.212;2022-12-18T04:11:10;101207.41;;;-7.59;74.94
49945;BME280;35838;49.134;9.212;2022-12-18T04:12:41;101211.09;;;-7.56;74.92
49945;BME280;35838;49.134;9.212;2022-12-18T04:14:15;101212.78;;;-7.65;74.95
49945;BME280;35838;49.134;9.212;2022-12-18T04:15:52;101222.84;;;-7.65;75.16
49945;BME280;35838;49.134;9.212;2022-12-18T04:17:24;101221.28;;;-7.73;75.46
49945;BME280;35838;49.134;9.212;2022-12-18T04:18:58;101222.13;;;-7.64;75.27
49945;BME280;35838;49.134;9.212;2022-12-18T04:20:32;101228.72;;;-7.56;74.77
49945;BME280;35838;49.134;9.212;2022-12-18T04:22:06;101233.19;;;-7.62;74.59
49945;BME280;35838;49.134;9.212;2022-12-18T04:23:40;101226.97;;;-7.57;75.11
49945;BME280;35838;49.134;9.212;2022-12-18T04:25:11;101214.47;;;-7.55;75.55
49945;BME280;35838;49.134;9.212;2022-12-18T04:26:45;101213.59;;;-7.56;75.88
49945;BME280;35838;49.134;9.212;2022-12-18T04:28:20;101218.06;;;-7.62;76.04
49945;BME280;35838;49.134;9.212;2022-12-18T04:29:51;101219.84;;;-7.61;76.24
49945;BME280;35838;49.134;9.212;2022-12-18T04:31:28;101224.34;;;-7.67;76.22
49945;BME280;35838;49.134;9.212;2022-12-18T04:33:02;101228.94;;;-7.63;76.23
49945;BME280;35838;49.134;9.212;2022-12-18T04:34:33;101234.72;;;-7.64;76.14
49945;BME280;35838;49.134;9.212;2022-12-18T04:36:07;101234.44;;;-7.67;76.12
49945;BME280;35838;49.134;9.212;2022-12-18T04:37:43;101225.91;;;-7.78;76.06
49945;BME280;35838;49.134;9.212;2022-12-18T04:39:17;101228.84;;;-7.73;76.09
49945;BME280;35838;49.134;9.212;2022-12-18T04:40:51;101221.09;;;-7.66;76.11
49945;BME280;35838;49.134;9.212;2022-12-18T04:42:25;101219.84;;;-7.61;76.37
49945;BME280;35838;49.134;9.212;2022-12-18T04:43:59;101216.31;;;-7.63;76.37
49945;BME280;35838;49.134;9.212;2022-12-18T04:45:33;101223.47;;;-7.67;76.46
49945;BME280;35838;49.134;9.212;2022-12-18T04:47:10;101220.53;;;-7.72;76.38
49945;BME280;35838;49.134;9.212;2022-12-18T04:48:45;101218.84;;;-7.63;75.92
49945;BME280;35838;49.134;9.212;2022-12-18T04:50:20;101220.34;;;-7.65;75.34
49945;BME280;35838;49.134;9.212;2022-12-18T04:51:51;101220.53;;;-7.72;75.38
49945;BME280;35838;49.134;9.212;2022-12-18T04:53:25;101222.03;;;-7.74;75.18
49945;BME280;35838;49.134;9.212;2022-12-18T04:54:59;101222.06;;;-7.83;75.53
49945;BME280;35838;49.134;9.212;2022-12-18T04:56:31;101218.53;;;-7.85;75.58
49945;BME280;35838;49.134;9.212;2022-12-18T04:58:05;101213.16;;;-7.79;75.95
49945;BME280;35838;49.134;9.212;2022-12-18T04:59:39;101216.16;;;-7.83;75.33
49945;BME280;35838;49.134;9.212;2022-12-18T05:01:15;101214.78;;;-7.80;75.17
49945;BME280;35838;49.134;9.212;2022-12-18T05:02:52;101220.97;;;-7.95;74.76
49945;BME280;35838;49.134;9.212;2022-12-18T05:04:26;101209.13;;;-7.96;75.12
49945;BME280;35838;49.134;9.212;2022-12-18T05:06:00;101214.59;;;-8.00;75.52
49945;BME280;35838;49.134;9.212;2022-12-18T05:07:34;101208.69;;;-8.01;75.83
49945;BME280;35838;49.134;9.212;2022-12-18T05:09:08;101206.47;;;-7.98;75.74
49945;BME280;35838;49.134;9.212;2022-12-18T05:10:39;101215.13;;;-8.13;75.46
49945;BME280;35838;49.134;9.212;2022-12-18T05:12:13;101217.88;;;-8.02;75.54
49945;BME280;35838;49.134;9.212;2022-12-18T05:13:47;101218.69;;;-8.11;75.68
49945;BME280;35838;49.134;9.212;2022-12-18T05:15:21;101217.19;;;-8.09;75.81
49945;BME280;35838;49.134;9.212;2022-12-18T05:16:53;101212.69;;;-8.03;75.70
49945;BME280;35838;49.134;9.212;2022-12-18T05:18:29;101214.94;;;-8.06;75.52
49945;BME280;35838;49.134;9.212;2022-12-18T05:20:04;101212.16;;;-8.09;75.83
49945;BME280;35838;49.134;9.212;2022-12-18T05:21:38;101222.66;;;-8.05;75.43
49945;BME280;35838;49.134;9.212;2022-12-18T05:23:12;101221.47;;;-8.08;75.60
49945;BME280;35838;49.134;9.212;2022-12-18T05:24:44;101224.03;;;-8.17;76.05
49945;BME280;35838;49.134;9.212;2022-12-18T05:26:18;101210.69;;;-8.16;75.94
49945;BME280;35838;49.134;9.212;2022-12-18T05:27:52;101221.19;;;-8.11;76.03
49945;BME280;35838;49.134;9.212;2022-12-18T05:29:26;101218.69;;;-8.11;75.96
49945;BME280;35838;49.134;9.212;2022-12-18T05:31:02;101219.53;;;-8.02;75.70
49945;BME280;35838;49.134;9.212;2022-12-18T05:32:36;101226.63;;;-7.98;75.42
49945;BME280;35838;49.134;9.212;2022-12-18T05:34:13;101228.31;;;-8.07;75.59
49945;BME280;35838;49.134;9.212;2022-12-18T05:35:50;101234.97;;;-8.08;75.99
49945;BME280;35838;49.134;9.212;2022-12-18T05:37:24;101238.84;;;-8.11;76.23
49945;BME280;35838;49.134;9.212;2022-12-18T05:38:56;101235.59;;;-8.19;76.09
49945;BME280;35838;49.134;9.212;2022-12-18T05:40:31;101238.84;;;-8.11;76.32
49945;BME280;35838;49.134;9.212;2022-12-18T05:42:02;101236.41;;;-8.01;75.93
49945;BME280;35838;49.134;9.212;2022-12-18T05:43:37;101231.41;;;-8.10;75.91
49945;BME280;35838;49.134;9.212;2022-12-18T05:45:12;101225.94;;;-8.14;76.32
49945;BME280;35838;49.134;9.212;2022-12-18T05:46:43;101230.41;;;-8.12;75.98
49945;BME280;35838;49.134;9.212;2022-12-18T05:48:17;101243.31;;;-8.18;76.31
49945;BME280;35838;49.134;9.212;2022-12-18T05:49:51;101243.31;;;-8.18;76.59
49945;BME280;35838;49.134;9.212;2022-12-18T05:51:25;101248.34;;;-8.18;76.97
49945;BME280;35838;49.134;9.212;2022-12-18T05:52:59;101247.88;;;-8.13;76.76
49945;BME280;35838;49.134;9.212;2022-12-18T05:54:31;101252.34;;;-8.20;76.78
49945;BME280;35838;49.134;9.212;2022-12-18T05:56:07;101252.66;;;-8.16;77.34
49945;BME280;35838;49.134;9.212;2022-12-18T05:57:42;101251.91;;;-8.15;77.35
49945;BME280;35838;49.134;9.212;2022-12-18T05:59:13;101248.47;;;-8.16;77.37
49945;BME280;35838;49.134;9.212;2022-12-18T06:00:47;101254.13;;;-8.19;77.61
49945;BME280;35838;49.134;9.212;2022-12-18T06:02:18;101257.69;;;-8.16;77.94
49945;BME280;35838;49.134;9.212;2022-12-18T06:03:52;101250.81;;;-8.09;77.42
49945;BME280;35838;49.134;9.212;2022-12-18T06:05:27;101254.25;;;-8.08;77.39
49945;BME280;35838;49.134;9.212;2022-12-18T06:07:01;101245.78;;;-8.09;77.84
49945;BME280;35838;49.134;9.212;2022-12-18T06:08:35;101239.06;;;-7.99;77.86
49945;BME280;35838;49.134;9.212;2022-12-18T06:10:07;101245.28;;;-7.96;77.66
49945;BME280;35838;49.134;9.212;2022-12-18T06:11:41;101241.13;;;-7.95;77.51
49945;BME280;35838;49.134;9.212;2022-12-18T06:13:13;101236.72;;;-7.98;77.25
49945;BME280;35838;49.134;9.212;2022-12-18T06:14:47;101244.69;;;-7.93;77.34
49945;BME280;35838;49.134;9.212;2022-12-18T06:16:21;101251.06;;;-7.97;76.71
49945;BME280;35838;49.134;9.212;2022-12-18T06:17:55;101245.34;;;-8.05;76.49
49945;BME280;35838;49.134;9.212;2022-12-18T06:19:29;101249.66;;;-8.12;76.49
49945;BME280;35838;49.134;9.212;2022-12-18T06:21:05;101246.94;;;-8.05;76.45
49945;BME280;35838;49.134;9.212;2022-12-18T06:22:39;101247.13;;;-8.12;76.56
49945;BME280;35838;49.134;9.212;2022-12-18T06:24:13;101250.50;;;-8.03;76.50
49945;BME280;35838;49.134;9.212;2022-12-18T06:25:47;101250.38;;;-8.05;76.30
49945;BME280;35838;49.134;9.212;2022-12-18T06:27:21;101250.41;;;-8.13;76.00
49945;BME280;35838;49.134;9.212;2022-12-18T06:28:55;101252.91;;;-8.13;76.05
49945;BME280;35838;49.134;9.212;2022-12-18T06:30:29;101244.47;;;-8.14;75.95
49945;BME280;35838;49.134;9.212;2022-12-18T06:32:04;101241.66;;;-8.17;76.18
49945;BME280;35838;49.134;9.212;2022-12-18T06:33:38;101250.41;;;-8.13;76.46
49945;BME280;35838;49.134;9.212;2022-12-18T06:35:12;101249.09;;;-8.19;76.37
49945;BME280;35838;49.134;9.212;2022-12-18T06:36:49;101251.56;;;-8.10;76.55
49945;BME280;35838;49.134;9.212;2022-12-18T06:38:23;101251.53;;;-8.01;76.56
49945;BME280;35838;49.134;9.212;2022-12-18T06:39:54;101249.53;;;-8.14;76.50
49945;BME280;35838;49.134;9.212;2022-12-18T06:41:29;101250.22;;;-8.06;76.59
49945;BME280;35838;49.134;9.212;2022-12-18T06:43:03;101248.59;;;-8.06;76.44
49945;BME280;35838;49.134;9.212;2022-12-18T06:44:37;101243.41;;;-8.07;75.99
49945;BME280;35838;49.134;9.212;2022-12-18T06:46:12;101244.00;;;-8.10;76.02
49945;BME280;35838;49.134;9.212;2022-12-18T06:47:46;101238.38;;;-8.07;76.07
49945;BME280;35838;49.134;9.212;2022-12-18T06:49:20;101245.66;;;-8.10;76.18
49945;BME280;35838;49.134;9.212;2022-12-18T06:50:54;101251.53;;;-8.01;75.96
49945;BME280;35838;49.134;9.212;2022-12-18T06:52:31;101256.28;;;-8.04;75.84
49945;BME280;35838;49.134;9.212;2022-12-18T06:54:05;101254.59;;;-7.95;75.62
49945;BME280;35838;49.134;9.212;2022-12-18T06:55:39;101252.72;;;-8.06;75.55
49945;BME280;35838;49.134;9.212;2022-12-18T06:57:10;101259.28;;;-8.08;75.95
49945;BME280;35838;49.134;9.212;2022-12-18T06:58:44;101266.97;;;-8.07;76.09
49945;BME280;35838;49.134;9.212;2022-12-18T07:00:18;101266.09;;;-8.07;76.20
49945;BME280;35838;49.134;9.212;2022-12-18T07:01:52;101273.81;;;-8.14;76.16
49945;BME280;35838;49.134;9.212;2022-12-18T07:03:26;101282.09;;;-8.07;76.14
49945;BME280;35838;49.134;9.212;2022-12-18T07:05:01;101283.13;;;-8.05;75.84
49945;BME280;35838;49.134;9.212;2022-12-18T07:06:35;101282.97;;;-8.06;75.84
49945;BME280;35838;49.134;9.212;2022-12-18T07:08:12;101294.88;;;-8.14;76.00
49945;BME280;35838;49.134;9.212;2022-12-18T07:09:46;101277.09;;;-8.15;76.41
49945;BME280;35838;49.134;9.212;2022-12-18T07:11:18;101283.44;;;-8.10;76.58
49945;BME280;35838;49.134;9.212;2022-12-18T07:12:52;101292.03;;;-8.08;76.64
49945;BME280;35838;49.134;9.212;2022-12-18T07:14:26;101285.66;;;-8.05;76.63
49945;BME280;35838;49.134;9.212;2022-12-18T07:16:04;101283.31;;;-8.12;76.72
49945;BME280;35838;49.134;9.212;2022-12-18T07:17:36;101284.47;;;-8.08;76.75
49945;BME280;35838;49.134;9.212;2022-12-18T07:19:10;101290.53;;;-8.06;76.88
49945;BME280;35838;49.134;9.212;2022-12-18T07:20:44;101289.53;;;-8.08;76.88
49945;BME280;35838;49.134;9.212;2022-12-18T07:22:18;101297.81;;;-8.09;76.83
49945;BME280;35838;49.134;9.212;2022-12-18T07:23:54;101301.09;;;-8.10;76.97
49945;BME280;35838;49.134;9.212;2022-12-18T07:25:28;101300.34;;;-8.09;77.12
49945;BME280;35838;49.134;9.212;2022-12-18T07:27:02;101299.63;;;-8.17;77.33
49945;BME280;35838;49.134;9.212;2022-12-18T07:28:38;101306.00;;;-8.12;77.48
49945;BME280;35838;49.134;9.212;2022-12-18T07:30:12;101307.59;;;-8.04;77.30
49945;BME280;35838;49.134;9.212;2022-12-18T07:31:46;101308.16;;;-8.06;77.23
49945;BME280;35838;49.134;9.212;2022-12-18T07:33:20;101312.47;;;-8.05;77.51
49945;BME280;35838;49.134;9.212;2022-12-18T07:34:54;101314.41;;;-8.03;77.56
49945;BME280;35838;49.134;9.212;2022-12-18T07:36:28;101315.41;;;-8.00;77.30
49945;BME280;35838;49.134;9.212;2022-12-18T07:38:02;101309.78;;;-7.98;77.21
49945;BME280;35838;49.134;9.212;2022-12-18T07:39:39;101302.50;;;-7.95;77.38
49945;BME280;35838;49.134;9.212;2022-12-18T07:41:13;101300.28;;;-7.92;76.99
49945;BME280;35838;49.134;9.212;2022-12-18T07:42:47;101296.59;;;-7.95;76.96
49945;BME280;35838;49.134;9.212;2022-12-18T07:44:21;101295.22;;;-7.92;76.85
49945;BME280;35838;49.134;9.212;2022-12-18T07:45:55;101298.94;;;-7.97;76.95
49945;BME280;35838;49.134;9.212;2022-12-18T07:47:29;101302.25;;;-7.98;76.95
49945;BME280;35838;49.134;9.212;2022-12-18T07:49:03;101299.47;;;-7.82;76.71
49945;BME280;35838;49.134;9.212;2022-12-18T07:50:37;101308.69;;;-7.82;76.89
49945;BME280;35838;49.134;9.212;2022-12-18T07:52:11;101303.16;;;-7.78;77.14
49945;BME280;35838;49.134;9.212;2022-12-18T07:53:43;101300.31;;;-7.73;76.97
49945;BME280;35838;49.134;9.212;2022-12-18T07:55:20;101302.31;;;-7.60;77.02
49945;BME280;35838;49.134;9.212;2022-12-18T07:56:54;101310.44;;;-7.53;77.15
49945;BME280;35838;49.134;9.212;2022-12-18T07:58:28;101307.91;;;-7.53;76.99
49945;BME280;35838;49.134;9.212;2022-12-18T08:00:03;101309.59;;;-7.35;77.26
49945;BME280;35838;49.134;9.212;2022-12-18T08:01:37;101312.19;;;-7.25;77.24
49945;BME280;35838;49.134;9.212;2022-12-18T08:03:12;101312.75;;;-7.18;76.80
49945;BME280;35838;49.134;9.212;2022-12-18T08:04:46;101312.00;;;-7.17;77.01
49945;BME280;35838;49.134;9.212;2022-12-18T08:06:20;101311.03;;;-7.09;77.16
49945;BME280;35838;49.134;9.212;2022-12-18T08:07:54;101312.88;;;-6.98;76.91
49945;BME280;35838;49.134;9.212;2022-12-18T08:09:28;101313.97;;;-6.85;76.62
49945;BME280;35838;49.134;9.212;2022-12-18T08:11:05;101314.50;;;-6.79;76.55
49945;BME280;35838;49.134;9.212;2022-12-18T08:12:39;101315.78;;;-6.74;76.32
49945;BME280;35838;49.134;9.212;2022-12-18T08:14:13;101312.34;;;-6.66;75.81
49945;BME280;35838;49.134;9.212;2022-12-18T08:15:55;101317.16;;;-6.58;75.88
49945;BME280;35838;49.134;9.212;2022-12-18T08:17:30;101313.72;;;-6.59;75.72
49945;BME280;35838;49.134;9.212;2022-12-18T08:19:04;101307.31;;;-6.55;75.86
49945;BME280;35838;49.134;9.212;2022-12-18T08:20:38;101301.91;;;-6.50;75.83